createdAt,value
2022-11-23T00:01:11.517Z,6.30
2022-11-23T00:03:39.530Z,6.67
2022-11-23T00:06:08.959Z,7.00
2022-11-23T00:08:37.297Z,9.60
2022-11-23T00:11:05.847Z,6.67
2022-11-23T00:13:35.146Z,5.83
2022-11-23T00:16:06.069Z,5.60
2022-11-23T00:18:34.028Z,6.50
2022-11-23T00:21:06.298Z,6.33
2022-11-23T00:23:35.580Z,5.93
2022-11-23T00:26:03.418Z,6.83
2022-11-23T00:28:31.523Z,6.83
2022-11-23T00:30:59.566Z,7.50
2022-11-23T00:33:27.420Z,12.40
2022-11-23T00:36:02.208Z,6.77
2022-11-23T00:38:31.782Z,5.83
2022-11-23T00:41:02.161Z,6.47
2022-11-23T00:43:31.452Z,6.20
2022-11-23T00:46:04.920Z,6.43
2022-11-23T00:48:33.246Z,6.50
2022-11-23T00:51:02.455Z,5.60
2022-11-23T00:53:30.363Z,6.03
2022-11-23T00:55:58.695Z,6.50
2022-11-23T00:58:34.624Z,6.30
2022-11-23T01:01:07.240Z,5.50
2022-11-23T01:03:37.163Z,6.47
2022-11-23T01:06:07.568Z,5.40
2022-11-23T01:08:35.488Z,6.37
2022-11-23T01:11:10.722Z,5.63
2022-11-23T01:13:42.162Z,7.53
2022-11-23T01:16:19.510Z,6.80
2022-11-23T01:18:53.615Z,5.63
2022-11-23T01:21:24.407Z,7.70
2022-11-23T01:23:52.548Z,7.13
2022-11-23T01:26:21.265Z,7.00
2022-11-23T01:28:50.874Z,6.50
2022-11-23T01:31:20.923Z,6.63
2022-11-23T01:33:49.414Z,7.20
2022-11-23T01:36:20.915Z,6.90
2022-11-23T01:38:49.429Z,6.67
2022-11-23T01:41:20.354Z,8.80
2022-11-23T01:43:51.521Z,5.57
2022-11-23T01:46:19.663Z,6.20
2022-11-23T01:48:52.091Z,9.10
2022-11-23T01:51:22.704Z,7.87
2022-11-23T01:53:55.390Z,5.43
2022-11-23T01:56:27.880Z,5.73
2022-11-23T01:59:03.747Z,6.90
2022-11-23T02:01:32.220Z,6.67
2022-11-23T02:04:02.140Z,5.40
2022-11-23T02:06:31.180Z,8.03
2022-11-23T02:09:03.300Z,5.83
2022-11-23T02:11:31.307Z,5.87
2022-11-23T02:14:00.529Z,5.47
2022-11-23T02:16:31.862Z,5.47
2022-11-23T02:18:59.891Z,5.57
2022-11-23T02:21:28.125Z,4.10
2022-11-23T02:24:02.732Z,3.93
2022-11-23T02:26:34.379Z,5.00
2022-11-23T02:29:11.176Z,3.90
2022-11-23T02:34:25.803Z,5.47
2022-11-23T02:36:57.352Z,4.83
2022-11-23T02:39:35.884Z,4.03
2022-11-23T02:42:06.826Z,4.03
2022-11-23T02:44:44.788Z,3.30
2022-11-23T02:47:14.619Z,3.83
2022-11-23T02:49:43.477Z,3.90
2022-11-23T02:52:11.356Z,3.80
2022-11-23T02:54:39.194Z,4.57
2022-11-23T02:57:08.957Z,3.30
2022-11-23T02:59:37.165Z,3.50
2022-11-23T03:02:06.278Z,4.47
2022-11-23T03:04:34.399Z,4.30
2022-11-23T03:07:02.463Z,4.53
2022-11-23T03:09:32.748Z,3.83
2022-11-23T03:12:00.848Z,4.50
2022-11-23T03:14:31.329Z,4.73
2022-11-23T03:16:59.604Z,3.90
2022-11-23T03:19:31.188Z,3.70
2022-11-23T03:21:59.320Z,3.93
2022-11-23T03:24:31.751Z,3.83
2022-11-23T03:27:01.279Z,3.70
2022-11-23T03:29:31.492Z,3.90
2022-11-23T03:32:02.807Z,5.00
2022-11-23T03:34:30.823Z,5.63
2022-11-23T03:36:58.714Z,3.83
2022-11-23T03:39:26.975Z,4.00
2022-11-23T03:42:14.127Z,4.20
2022-11-23T03:44:43.443Z,4.40
2022-11-23T03:47:12.136Z,3.90
2022-11-23T03:49:40.072Z,4.63
2022-11-23T03:52:09.992Z,5.70
2022-11-23T03:54:37.915Z,4.10
2022-11-23T03:57:21.758Z,4.13
2022-11-23T03:59:51.422Z,3.93
2022-11-23T04:02:20.007Z,3.60
2022-11-23T04:04:57.898Z,4.07
2022-11-23T04:07:54.729Z,4.53
2022-11-23T04:10:26.369Z,5.63
2022-11-23T04:13:03.701Z,4.00
2022-11-23T04:15:33.739Z,4.43
2022-11-23T04:18:02.847Z,4.73
2022-11-23T04:20:30.694Z,5.53
2022-11-23T04:22:58.677Z,5.40
2022-11-23T04:25:28.323Z,5.40
2022-11-23T04:27:56.794Z,4.67
2022-11-23T04:30:25.881Z,6.07
2022-11-23T04:32:58.183Z,5.73
2022-11-23T04:35:27.570Z,5.33
2022-11-23T04:37:56.839Z,6.60
2022-11-23T04:40:30.664Z,5.20
2022-11-23T04:43:02.359Z,6.00
2022-11-23T04:45:34.011Z,6.00
2022-11-23T04:48:09.031Z,11.20
2022-11-23T04:50:40.504Z,7.97
2022-11-23T04:53:09.263Z,5.43
2022-11-23T04:55:42.963Z,4.50
2022-11-23T04:58:11.979Z,3.90
2022-11-23T05:00:40.739Z,5.87
2022-11-23T05:03:11.092Z,4.20
2022-11-23T05:05:42.179Z,4.40
2022-11-23T05:08:11.163Z,4.10
2022-11-23T05:10:48.902Z,4.43
2022-11-23T05:13:17.068Z,4.63
2022-11-23T05:15:46.016Z,3.70
2022-11-23T05:18:19.511Z,4.57
2022-11-23T05:20:47.891Z,4.07
2022-11-23T05:23:17.443Z,7.03
2022-11-23T05:25:47.914Z,5.80
2022-11-23T05:28:39.734Z,4.97
2022-11-23T05:31:09.220Z,4.77
2022-11-23T05:33:38.969Z,4.03
2022-11-23T05:36:13.784Z,4.60
2022-11-23T05:38:42.742Z,5.50
2022-11-23T05:41:16.401Z,5.93
2022-11-23T05:43:45.589Z,4.00
2022-11-23T05:46:19.179Z,4.53
2022-11-23T05:48:48.880Z,7.03
2022-11-23T05:51:16.887Z,5.80
2022-11-23T05:53:46.456Z,4.93
2022-11-23T05:56:24.107Z,4.37
2022-11-23T05:59:08.513Z,5.63
2022-11-23T06:01:38.993Z,5.27
2022-11-23T06:04:10.511Z,6.87
2022-11-23T06:06:43.319Z,6.40
2022-11-23T06:09:11.970Z,7.50
2022-11-23T06:11:44.521Z,5.50
2022-11-23T06:14:16.003Z,5.37
2022-11-23T06:16:46.692Z,6.23
2022-11-23T06:19:36.173Z,5.17
2022-11-23T06:22:05.756Z,5.00
2022-11-23T06:24:39.068Z,5.87
2022-11-23T06:27:25.660Z,5.60
2022-11-23T06:29:53.801Z,4.50
2022-11-23T06:32:24.154Z,6.77
2022-11-23T06:34:56.674Z,5.67
2022-11-23T06:37:27.782Z,7.20
2022-11-23T06:39:56.522Z,7.53
2022-11-23T06:42:40.785Z,6.30
2022-11-23T06:45:17.763Z,4.70
2022-11-23T06:47:47.082Z,5.30
2022-11-23T06:50:17.367Z,6.20
2022-11-23T06:52:47.212Z,4.90
2022-11-23T06:55:15.440Z,5.20
2022-11-23T06:57:43.314Z,5.53
2022-11-23T07:00:14.150Z,6.83
2022-11-23T07:02:43.821Z,7.67
2022-11-23T07:05:11.848Z,7.37
2022-11-23T07:07:41.299Z,7.60
2022-11-23T07:10:15.919Z,10.00
2022-11-23T07:12:47.031Z,10.00
2022-11-23T07:15:17.550Z,9.50
2022-11-23T07:17:46.437Z,10.20
2022-11-23T07:20:15.318Z,8.87
2022-11-23T07:22:44.720Z,10.37
2022-11-23T07:25:18.269Z,17.00
2022-11-23T07:27:46.164Z,7.40
2022-11-23T07:30:14.948Z,9.67
2022-11-23T07:32:44.426Z,9.00
2022-11-23T07:35:12.816Z,10.13
2022-11-23T07:37:45.225Z,8.60
2022-11-23T07:40:13.391Z,10.73
2022-11-23T07:42:44.932Z,6.60
2022-11-23T07:45:14.016Z,8.17
2022-11-23T07:47:45.784Z,8.23
2022-11-23T07:50:14.713Z,6.23
2022-11-23T07:52:42.656Z,7.20
2022-11-23T07:55:12.009Z,6.70
2022-11-23T07:57:39.851Z,6.83
2022-11-23T08:00:09.361Z,7.70
2022-11-23T08:03:04.244Z,8.23
2022-11-23T08:05:32.894Z,7.00
2022-11-23T08:08:01.933Z,5.00
2022-11-23T08:10:32.375Z,5.63
2022-11-23T08:13:00.901Z,5.33
2022-11-23T08:15:29.170Z,6.63
2022-11-23T08:17:57.267Z,6.27
2022-11-23T08:20:25.794Z,4.43
2022-11-23T08:22:55.850Z,4.50
2022-11-23T08:25:24.405Z,6.33
2022-11-23T08:27:57.109Z,4.93
2022-11-23T08:30:27.064Z,3.50
2022-11-23T08:32:54.939Z,4.00
2022-11-23T08:35:22.782Z,3.73
2022-11-23T08:37:50.624Z,4.67
2022-11-23T08:40:24.755Z,4.37
2022-11-23T08:42:53.105Z,4.10
2022-11-23T08:45:22.671Z,3.00
2022-11-23T08:47:50.932Z,3.23
2022-11-23T08:50:18.982Z,3.97
2022-11-23T08:52:47.034Z,3.30
2022-11-23T08:55:15.101Z,4.00
2022-11-23T08:57:42.904Z,2.80
2022-11-23T09:00:11.474Z,3.00
2022-11-23T09:02:40.732Z,3.20
2022-11-23T09:05:09.484Z,3.80
2022-11-23T09:07:37.472Z,3.20
2022-11-23T09:10:06.520Z,2.90
2022-11-23T09:12:34.468Z,4.43
2022-11-23T09:15:02.381Z,3.63
2022-11-23T09:17:32.326Z,3.97
2022-11-23T09:20:01.783Z,3.90
2022-11-23T09:22:29.697Z,3.47
2022-11-23T09:24:57.655Z,6.50
2022-11-23T09:27:25.650Z,5.30
2022-11-23T09:29:53.701Z,5.07
2022-11-23T09:32:21.617Z,4.00
2022-11-23T09:34:49.510Z,5.63
2022-11-23T09:37:18.914Z,4.90
2022-11-23T09:39:46.757Z,4.67
2022-11-23T09:42:36.101Z,5.90
2022-11-23T09:45:19.911Z,5.03
2022-11-23T09:48:11.766Z,4.87
2022-11-23T09:50:47.857Z,5.30
2022-11-23T09:53:22.872Z,4.63
2022-11-23T09:55:52.634Z,4.93
2022-11-23T09:58:22.625Z,7.03
2022-11-23T10:01:02.029Z,4.80
2022-11-23T10:03:32.523Z,3.90
2022-11-23T10:06:05.663Z,5.30
2022-11-23T10:08:45.850Z,8.37
2022-11-23T10:11:49.643Z,3.77
2022-11-23T10:14:33.514Z,4.30
2022-11-23T10:17:10.362Z,6.20
2022-11-23T10:19:55.433Z,9.20
2022-11-23T10:22:30.669Z,3.80
2022-11-23T10:25:03.024Z,3.50
2022-11-23T10:27:32.218Z,3.60
2022-11-23T10:30:01.278Z,3.97
2022-11-23T10:32:34.184Z,3.50
2022-11-23T10:35:08.003Z,3.67
2022-11-23T10:37:35.854Z,3.80
2022-11-23T10:40:05.735Z,4.03
2022-11-23T10:42:38.330Z,4.77
2022-11-23T10:45:07.387Z,3.90
2022-11-23T10:47:42.773Z,4.03
2022-11-23T10:50:27.466Z,4.77
2022-11-23T10:52:58.017Z,4.00
2022-11-23T10:55:30.147Z,4.07
2022-11-23T10:57:58.610Z,4.00
2022-11-23T11:00:30.918Z,4.17
2022-11-23T11:03:00.531Z,4.07
2022-11-23T11:08:32.072Z,3.40
2022-11-23T11:11:04.037Z,3.93
2022-11-23T11:13:33.919Z,5.27
2022-11-23T11:16:03.562Z,4.40
2022-11-23T11:18:33.296Z,3.87
2022-11-23T11:21:04.877Z,5.00
2022-11-23T11:23:34.646Z,5.87
2022-11-23T11:26:11.128Z,4.50
2022-11-23T11:28:43.952Z,5.13
2022-11-23T11:31:26.967Z,4.33
2022-11-23T11:33:59.861Z,5.37
2022-11-23T11:36:33.584Z,3.53
2022-11-23T11:39:18.231Z,3.90
2022-11-23T11:41:51.735Z,5.40
2022-11-23T11:44:22.927Z,6.10
2022-11-23T11:46:58.598Z,5.90
2022-11-23T11:49:31.094Z,5.60
2022-11-23T11:52:06.912Z,4.60
2022-11-23T11:54:42.371Z,4.43
2022-11-23T11:57:18.915Z,4.77
2022-11-23T11:59:50.064Z,7.37
2022-11-23T12:02:23.663Z,5.37
2022-11-23T12:04:59.283Z,9.60
2022-11-23T12:07:31.837Z,5.80
2022-11-23T12:10:06.198Z,6.90
2022-11-23T12:12:37.890Z,3.70
2022-11-23T12:15:26.421Z,4.43
2022-11-23T12:18:24.962Z,3.60
2022-11-23T12:21:01.673Z,3.70
2022-11-23T12:23:43.218Z,4.30
2022-11-23T12:26:20.725Z,3.97
2022-11-23T12:29:14.666Z,4.60
2022-11-23T12:31:48.541Z,4.53
2022-11-23T12:34:35.437Z,5.00
2022-11-23T12:37:20.188Z,3.70
2022-11-23T12:40:23.487Z,4.53
2022-11-23T12:42:55.061Z,5.60
2022-11-23T12:45:46.415Z,5.13
2022-11-23T12:48:37.755Z,4.13
2022-11-23T12:51:15.977Z,4.47
2022-11-23T12:53:54.399Z,5.40
2022-11-23T12:56:40.426Z,4.00
2022-11-23T12:59:12.076Z,4.53
2022-11-23T13:01:44.326Z,4.57
2022-11-23T13:04:45.708Z,6.83
2022-11-23T13:07:43.194Z,4.30
2022-11-23T13:10:23.875Z,5.60
2022-11-23T13:13:14.029Z,5.93
2022-11-23T13:15:59.913Z,4.80
2022-11-23T13:18:42.241Z,6.23
2022-11-23T13:21:21.517Z,7.43
2022-11-23T13:23:49.592Z,5.23
2022-11-23T13:26:18.818Z,6.80
2022-11-23T13:28:47.912Z,4.97
2022-11-23T13:31:23.530Z,5.00
2022-11-23T13:33:55.227Z,6.23
2022-11-23T13:40:03.734Z,5.20
2022-11-23T13:42:35.725Z,4.43
2022-11-23T13:45:26.872Z,4.80
2022-11-23T13:48:06.666Z,5.03
2022-11-23T13:50:36.929Z,5.80
2022-11-23T13:53:05.913Z,5.70
2022-11-23T13:55:37.970Z,6.43
2022-11-23T13:58:37.715Z,6.30
2022-11-23T14:01:05.951Z,6.00
2022-11-23T14:03:56.222Z,6.27
2022-11-23T14:06:35.583Z,5.80
2022-11-23T14:09:10.960Z,5.43
2022-11-23T14:11:53.423Z,6.50
2022-11-23T14:14:27.524Z,7.07
2022-11-23T14:17:20.662Z,7.90
2022-11-23T14:20:09.608Z,5.97
2022-11-23T14:22:52.138Z,5.77
2022-11-23T14:25:37.265Z,5.97
2022-11-23T14:28:15.790Z,6.57
2022-11-23T14:30:56.208Z,6.10
2022-11-23T14:33:34.406Z,5.70
2022-11-23T14:36:17.628Z,6.27
2022-11-23T14:39:04.363Z,6.60
2022-11-23T14:41:36.274Z,6.40
2022-11-23T14:44:06.918Z,7.70
2022-11-23T14:46:34.949Z,7.97
2022-11-23T14:49:07.489Z,6.20
2022-11-23T14:51:37.714Z,8.13
2022-11-23T14:54:10.975Z,6.77
2022-11-23T14:56:43.796Z,6.47
2022-11-23T14:59:25.651Z,6.00
2022-11-23T15:01:57.132Z,7.20
2022-11-23T15:04:29.076Z,6.53
2022-11-23T15:07:00.342Z,9.33
2022-11-23T15:09:43.014Z,9.50
2022-11-23T15:12:22.876Z,8.30
2022-11-23T15:14:51.760Z,11.90
2022-11-23T15:17:21.762Z,27.30
2022-11-23T15:19:57.341Z,68.27
2022-11-23T15:22:26.963Z,30.73
2022-11-23T15:25:07.009Z,20.33
2022-11-23T15:27:34.919Z,10.60
2022-11-23T15:30:03.275Z,9.10
2022-11-23T15:32:34.234Z,8.23
2022-11-23T15:35:07.191Z,6.93
2022-11-23T15:37:42.080Z,8.80
2022-11-23T15:40:15.127Z,8.87
2022-11-23T15:42:44.438Z,11.30
2022-11-23T15:45:35.176Z,7.90
2022-11-23T15:48:04.352Z,8.67
2022-11-23T15:50:34.216Z,8.40
2022-11-23T15:53:03.246Z,9.63
2022-11-23T15:55:32.459Z,8.40
2022-11-23T15:58:03.531Z,8.63
2022-11-23T16:00:31.781Z,8.43
2022-11-23T16:03:34.367Z,10.20
2022-11-23T16:06:25.888Z,7.60
2022-11-23T16:08:53.725Z,27.60
2022-11-23T16:11:29.927Z,14.97
2022-11-23T16:14:31.934Z,15.57
2022-11-23T16:17:04.296Z,12.70
2022-11-23T16:19:34.870Z,9.60
2022-11-23T16:22:06.208Z,12.77
2022-11-23T16:24:36.781Z,9.67
2022-11-23T16:27:15.657Z,8.10
2022-11-23T16:29:43.753Z,9.07
2022-11-23T16:32:24.037Z,11.57
2022-11-23T16:34:52.053Z,10.73
2022-11-23T16:37:20.270Z,28.97
2022-11-23T16:39:48.177Z,34.97
2022-11-23T16:42:18.342Z,22.53
2022-11-23T16:44:46.323Z,17.20
2022-11-23T16:47:21.426Z,13.33
2022-11-23T16:49:50.124Z,9.50
2022-11-23T16:52:18.507Z,7.23
2022-11-23T16:54:46.839Z,17.50
2022-11-23T16:57:30.153Z,30.23
2022-11-23T17:00:00.065Z,49.07
2022-11-23T17:02:28.691Z,61.43
2022-11-23T17:04:56.826Z,58.80
2022-11-23T17:07:24.884Z,27.53
2022-11-23T17:09:52.820Z,18.20
2022-11-23T17:12:21.747Z,12.40
2022-11-23T17:14:51.484Z,13.93
2022-11-23T17:17:22.000Z,12.27
2022-11-23T17:19:50.803Z,12.00
2022-11-23T17:22:19.803Z,12.50
2022-11-23T17:24:48.739Z,12.37
2022-11-23T17:27:19.700Z,16.37
2022-11-23T17:29:48.791Z,15.60
2022-11-23T17:32:18.136Z,11.70
2022-11-23T17:34:45.990Z,15.80
2022-11-23T17:37:19.981Z,15.63
2022-11-23T17:39:48.539Z,13.80
2022-11-23T17:42:17.114Z,15.73
2022-11-23T17:44:45.023Z,14.90
2022-11-23T17:47:25.462Z,14.23
2022-11-23T17:49:53.340Z,12.97
2022-11-23T17:52:21.217Z,14.10
2022-11-23T17:54:49.155Z,17.03
2022-11-23T17:57:20.072Z,17.03
2022-11-23T17:59:47.977Z,16.27
2022-11-23T18:02:16.228Z,15.67
2022-11-23T18:04:45.425Z,17.10
2022-11-23T18:07:14.568Z,17.37
2022-11-23T18:09:43.161Z,15.50
2022-11-23T18:12:11.282Z,13.67
2022-11-23T18:14:39.255Z,17.63
2022-11-23T18:17:07.195Z,22.70
2022-11-23T18:19:35.450Z,20.77
2022-11-23T18:22:04.772Z,17.10
2022-11-23T18:24:32.598Z,18.70
2022-11-23T18:27:00.704Z,18.37
2022-11-23T18:29:28.559Z,17.07
2022-11-23T18:31:56.391Z,18.63
2022-11-23T18:34:24.240Z,17.67
2022-11-23T18:36:52.059Z,14.33
2022-11-23T18:39:21.329Z,18.37
2022-11-23T18:41:49.349Z,21.23
2022-11-23T18:44:17.321Z,17.40
2022-11-23T18:46:45.978Z,18.63
2022-11-23T18:49:14.154Z,18.23
2022-11-23T18:51:41.933Z,20.37
2022-11-23T18:54:09.733Z,17.67
2022-11-23T18:56:38.954Z,19.10
2022-11-23T18:59:07.602Z,19.97
2022-11-23T19:01:35.485Z,20.87
2022-11-23T19:04:03.658Z,24.43
2022-11-23T19:06:32.635Z,20.43
2022-11-23T19:09:01.764Z,22.73
2022-11-23T19:11:29.620Z,26.73
2022-11-23T19:14:01.228Z,21.10
2022-11-23T19:16:31.353Z,32.03
2022-11-23T19:19:01.039Z,27.57
2022-11-23T19:21:31.015Z,28.07
2022-11-23T19:24:00.685Z,27.57
2022-11-23T19:26:29.960Z,31.03
2022-11-23T19:28:59.901Z,31.07
2022-11-23T19:31:29.252Z,30.40
2022-11-23T19:34:00.578Z,30.13
2022-11-23T19:36:30.227Z,29.50
2022-11-23T19:39:00.266Z,24.50
2022-11-23T19:41:30.819Z,27.73
2022-11-23T19:44:01.416Z,28.63
2022-11-23T19:46:31.035Z,27.73
2022-11-23T19:48:59.289Z,28.10
2022-11-23T19:51:28.179Z,25.03
2022-11-23T19:53:57.164Z,29.17
2022-11-23T19:56:28.690Z,29.87
2022-11-23T19:58:58.362Z,30.03
2022-11-23T20:01:29.036Z,31.83
2022-11-23T20:03:58.211Z,28.07
2022-11-23T20:06:28.390Z,30.93
2022-11-23T20:08:57.410Z,28.70
2022-11-23T20:11:26.319Z,29.50
2022-11-23T20:13:54.888Z,31.50
2022-11-23T20:16:24.263Z,29.33
2022-11-23T20:18:58.679Z,27.30
2022-11-23T20:21:27.868Z,34.80
2022-11-23T20:24:01.442Z,32.00
2022-11-23T20:26:32.899Z,33.93
2022-11-23T20:29:01.125Z,35.70
2022-11-23T20:31:30.384Z,33.43
2022-11-23T20:34:06.438Z,29.63
2022-11-23T20:36:36.869Z,31.37
2022-11-23T20:39:06.959Z,36.73
2022-11-23T20:41:36.469Z,34.87
2022-11-23T20:44:06.604Z,38.70
2022-11-23T20:49:24.096Z,39.00
2022-11-23T20:51:51.873Z,39.20
2022-11-23T20:54:19.719Z,35.37
2022-11-23T20:56:47.564Z,38.97
2022-11-23T20:59:15.702Z,43.07
2022-11-23T21:01:43.694Z,40.97
2022-11-23T21:04:11.632Z,39.60
2022-11-23T21:06:40.997Z,39.97
2022-11-23T21:09:10.984Z,39.40
2022-11-23T21:11:56.243Z,38.17
2022-11-23T21:14:27.628Z,40.20
2022-11-23T21:16:58.510Z,38.50
2022-11-23T21:19:28.313Z,38.73
2022-11-23T21:21:58.960Z,38.17
2022-11-23T21:24:26.987Z,39.00
2022-11-23T21:26:55.046Z,38.80
2022-11-23T21:29:23.647Z,38.57
2022-11-23T21:31:51.638Z,36.77
2022-11-23T21:34:21.797Z,42.83
2022-11-23T21:36:50.455Z,38.07
2022-11-23T21:39:20.570Z,44.10
2022-11-23T21:41:50.682Z,41.97
2022-11-23T21:44:19.221Z,42.03
2022-11-23T21:46:47.282Z,41.63
2022-11-23T21:49:15.242Z,33.10
2022-11-23T21:51:43.827Z,35.27
2022-11-23T21:54:15.285Z,34.33
2022-11-23T21:56:45.286Z,22.43
2022-11-23T21:59:13.907Z,23.10
2022-11-23T22:01:42.415Z,23.10
2022-11-23T22:04:12.456Z,23.57
2022-11-23T22:06:41.904Z,22.80
2022-11-23T22:09:12.170Z,23.20
2022-11-23T22:11:42.238Z,22.90
2022-11-23T22:14:13.487Z,27.23
2022-11-23T22:16:43.331Z,29.00
2022-11-23T22:19:11.817Z,22.83
2022-11-23T22:21:41.242Z,27.90
2022-11-23T22:24:12.853Z,23.03
2022-11-23T22:26:40.757Z,29.00
2022-11-23T22:29:08.718Z,27.40
2022-11-23T22:31:38.691Z,26.10
2022-11-23T22:34:08.585Z,24.73
2022-11-23T22:36:36.460Z,27.93
2022-11-23T22:39:06.436Z,26.33
2022-11-23T22:41:36.813Z,25.43
2022-11-23T22:44:06.615Z,24.00
2022-11-23T22:46:34.519Z,26.13
2022-11-23T22:49:03.939Z,25.60
2022-11-23T22:51:31.783Z,24.93
2022-11-23T22:54:00.985Z,22.30
2022-11-23T22:56:30.721Z,25.70
2022-11-23T22:58:58.800Z,24.90
2022-11-23T23:01:28.968Z,27.80
2022-11-23T23:03:58.451Z,24.13
2022-11-23T23:06:29.558Z,28.20
2022-11-23T23:08:59.096Z,24.47
2022-11-23T23:11:28.964Z,30.83
2022-11-23T23:13:57.277Z,22.47
2022-11-23T23:16:25.589Z,23.20
2022-11-23T23:18:55.783Z,27.43
2022-11-23T23:21:24.591Z,30.43
2022-11-23T23:23:55.185Z,28.60
2022-11-23T23:26:24.904Z,26.27
2022-11-23T23:28:55.301Z,31.87
2022-11-23T23:31:24.929Z,31.40
2022-11-23T23:33:54.540Z,37.33
2022-11-23T23:36:23.570Z,40.10
2022-11-23T23:38:54.967Z,35.43
2022-11-23T23:41:23.487Z,41.23
2022-11-23T23:43:51.261Z,38.57
2022-11-23T23:46:19.302Z,41.80
2022-11-23T23:48:47.835Z,37.77
2022-11-23T23:51:17.325Z,41.87
2022-11-23T23:53:47.940Z,40.10
2022-11-23T23:56:21.470Z,39.50
2022-11-23T23:58:49.893Z,37.30
